Sharon, New Hampshire
Current Conditions -  °F | °C
As of 7:52 AM on Thursday 27 Nov 2014 (Local Time) from KAFN Reporting Station
NA  
Wind Chill: 22°   Ceiling: NA
Heat Index: 28°   Visibility: 10mi
Dew Point: 24°   Wind: 6mph
Humidity: 85%   Direction: 10°N
Pressure: 29.86"   Gusts: NA
Location:  42.8756°N, 71.9378°W
Report Text: KAFN 271252Z AUTO 01005KT 10SM M02/M04 A2986 RMK AO2 SLP128 T10221044 $
Loading
Personal Weather Stations






























Interactive Weather Map New forecast layout! Learn more

10-Day Weather Forecast

Advertisements
Track Severe Weather on mobile